CheckWX is a tool to help pilots better visualize weather data.  It is not intended as a substitute for an official pre-flight weather briefing.

06:10:08 UTC

KMNN METAR
Marion Municipal Airport
Marion, Ohio, USA
Current

17 mins ago

KMNN 230553Z AUTO 19009KT 10SM CLR 15/09 A3004 RMK AO2 SLP172 T01500089 10194 20144 56010 $
Observed
Apr-23 @ 05:53 UTC
Wind
  • 190° at 9 KTS
Visibility
10 SM
Flight Rules
VFR
Cloud Levels
  • Clear skies
Temperature
15°C / 59°F
Dewpoint
C / 48°F
Humidity
68%
Altimeter
30.04" Hg
Pressure
1017.32 hPa
Previous

1 hour ago

KMNN 230453Z AUTO 19007KT 10SM CLR 16/09 A3005 RMK AO2 SLP174 T01560089 402170039 $
Observed
Apr-23 @ 04:53 UTC
Wind
  • 190° at 7 KTS
Visibility
10 SM
Flight Rules
VFR
Cloud Levels
  • Clear skies
Temperature
16°C / 61°F
Dewpoint
C / 48°F
Humidity
63%
Altimeter
30.05" Hg
Pressure
1017.62 hPa
Previous

2 hours ago

KMNN 230353Z AUTO 16009KT 10SM CLR 14/09 A3006 RMK AO2 SLP178 T01440089 $
Observed
Apr-23 @ 03:53 UTC
Wind
  • 160° at 9 KTS
Visibility
10 SM
Flight Rules
VFR
Cloud Levels
  • Clear skies
Temperature
14°C / 57°F
Dewpoint
C / 48°F
Humidity
72%
Altimeter
30.06" Hg
Pressure
1017.92 hPa